createdAt,value
2024-04-01T00:00:45.234Z,20.38
2024-04-01T00:03:42.807Z,26.060000000000002
2024-04-01T00:06:41.342Z,26.660000000000004
2024-04-01T00:09:38.918Z,25.36
2024-04-01T00:12:36.469Z,26.9
2024-04-01T00:15:34.044Z,19.860000000000003
2024-04-01T00:18:31.590Z,20.939999999999998
2024-04-01T00:21:30.151Z,24.26
2024-04-01T00:24:30.697Z,25.639999999999997
2024-04-01T00:27:28.237Z,24.7
2024-04-01T00:30:25.773Z,19.939999999999998
2024-04-01T00:33:23.423Z,25.3
2024-04-01T00:36:22.886Z,23.279999999999998
2024-04-01T00:39:20.476Z,24.5
2024-04-01T00:42:18.035Z,22.259999999999998
2024-04-01T00:45:15.572Z,20.339999999999996
2024-04-01T00:48:14.135Z,27.8
2024-04-01T00:51:11.679Z,22.3
2024-04-01T00:54:09.220Z,28.04
2024-04-01T00:57:07.781Z,18.96
2024-04-01T01:00:08.327Z,27.620000000000005
2024-04-01T01:03:07.875Z,24.2
2024-04-01T01:06:09.444Z,24.020000000000003
2024-04-01T01:09:07.011Z,21.360000000000003
2024-04-01T01:12:05.539Z,23.68
2024-04-01T01:15:04.129Z,21.96
2024-04-01T01:18:01.669Z,19.7
2024-04-01T01:20:59.212Z,26.080000000000002
2024-04-01T01:23:56.759Z,23.46
2024-04-01T01:26:56.354Z,24.259999999999998
2024-04-01T01:29:53.859Z,22.18
2024-04-01T01:32:53.427Z,19.5
2024-04-01T01:35:53.968Z,20.9
2024-04-01T01:38:52.524Z,26.96
2024-04-01T01:41:50.095Z,15.320000000000002
2024-04-01T01:44:47.694Z,20.559999999999995
2024-04-01T01:47:45.215Z,21.82
2024-04-01T01:50:42.742Z,19.020000000000003
2024-04-01T01:53:43.331Z,17.880000000000003
2024-04-01T01:56:40.872Z,18.22
2024-04-01T01:59:38.420Z,22.34
2024-04-01T02:02:36.992Z,25.5
2024-04-01T02:05:35.516Z,20.18
2024-04-01T02:08:33.100Z,17.159999999999997
2024-04-01T02:11:31.630Z,13.9
2024-04-01T02:14:30.197Z,17.96
2024-04-01T02:17:28.762Z,20.7
2024-04-01T02:20:26.318Z,19.1
2024-04-01T02:23:24.913Z,12.139999999999997
2024-04-01T02:26:22.419Z,17.3
2024-04-01T02:29:19.951Z,19.02
2024-04-01T02:32:17.535Z,11.579999999999998
2024-04-01T02:35:15.080Z,23.299999999999997
2024-04-01T02:38:12.632Z,19.72
2024-04-01T02:41:11.196Z,10.5
2024-04-01T02:44:08.762Z,17.3
2024-04-01T02:47:06.323Z,17.360000000000003
2024-04-01T02:50:03.859Z,14.3
2024-04-01T02:53:03.424Z,14.64
2024-04-01T02:56:01.008Z,14.499999999999996
2024-04-01T02:59:03.527Z,15.16
2024-04-01T03:02:01.435Z,16.94
2024-04-01T03:04:58.653Z,16.32
2024-04-01T03:07:57.193Z,12.540000000000001
2024-04-01T03:10:58.708Z,11.64
2024-04-01T03:13:57.341Z,12.879999999999999
2024-04-01T03:16:54.830Z,9.12
2024-04-01T03:19:52.409Z,18.560000000000002
2024-04-01T03:22:49.959Z,15.12
2024-04-01T03:25:50.546Z,12.68
2024-04-01T03:28:48.059Z,12.379999999999999
2024-04-01T03:31:45.650Z,14.6
2024-04-01T03:34:43.171Z,13.1
2024-04-01T03:37:41.740Z,13.779999999999998
2024-04-01T03:43:48.817Z,19.54
2024-04-01T03:46:46.351Z,15.6
2024-04-01T03:49:43.917Z,13.38
2024-04-01T03:52:42.482Z,14.66
2024-04-01T03:55:42.020Z,15.62
2024-04-01T03:58:39.595Z,10.459999999999999
2024-04-01T04:01:37.168Z,14.120000000000001
2024-04-01T04:04:34.703Z,12.86
2024-04-01T04:07:32.249Z,9.48
2024-04-01T04:10:29.792Z,25.78
2024-04-01T04:13:27.361Z,17.580000000000002
2024-04-01T04:16:24.926Z,15.580000000000002
2024-04-01T04:19:26.502Z,16.52
2024-04-01T04:22:25.033Z,17.1
2024-04-01T04:25:23.575Z,15.2
2024-04-01T04:28:21.135Z,21.52
2024-04-01T04:31:19.686Z,18
2024-04-01T04:34:17.254Z,16.58
2024-04-01T04:37:16.803Z,13.040000000000001
2024-04-01T04:40:15.347Z,14.939999999999998
2024-04-01T04:43:12.924Z,11.360000000000001
2024-04-01T04:46:13.484Z,11.68
2024-04-01T04:49:11.043Z,13.020000000000001
2024-04-01T04:52:09.580Z,11.98
2024-04-01T04:55:07.127Z,8.42
2024-04-01T04:58:04.689Z,14.940000000000001
2024-04-01T05:01:06.237Z,13.76
2024-04-01T05:04:05.793Z,15.88
2024-04-01T05:07:03.351Z,7.1
2024-04-01T05:10:00.891Z,11.74
2024-04-01T05:12:59.424Z,13.540000000000001
2024-04-01T05:15:57.194Z,12.819999999999999
2024-04-01T05:18:54.563Z,14.059999999999999
2024-04-01T05:21:52.468Z,11.22
2024-04-01T05:24:50.687Z,11.979999999999999
2024-04-01T05:27:48.219Z,10.96
2024-04-01T05:30:47.773Z,10.76
2024-04-01T05:33:46.324Z,10.2
2024-04-01T05:36:43.878Z,17.08
2024-04-01T05:39:41.438Z,9.34
2024-04-01T05:42:39.001Z,12.139999999999999
2024-04-01T05:45:36.562Z,16.3
2024-04-01T05:48:34.096Z,13.3
2024-04-01T05:51:31.667Z,18.14
2024-04-01T05:54:30.232Z,19.060000000000002
2024-04-01T05:57:27.782Z,11.94
2024-04-01T06:00:27.350Z,18.580000000000002
2024-04-01T06:03:26.879Z,14.940000000000001
2024-04-01T06:06:24.448Z,14.64
2024-04-01T06:09:21.996Z,14.5
2024-04-01T06:12:19.559Z,15.14
2024-04-01T06:15:17.146Z,13.84
2024-04-01T06:18:14.666Z,12.84
2024-04-01T06:21:12.582Z,13.940000000000001
2024-04-01T06:24:10.789Z,15.440000000000001
2024-04-01T06:27:08.357Z,12.12
2024-04-01T06:30:05.869Z,14.319999999999999
2024-04-01T06:33:03.434Z,20.240000000000002
2024-04-01T06:36:02.332Z,13.34
2024-04-01T06:38:59.560Z,9.719999999999999
2024-04-01T06:41:57.111Z,20.12
2024-04-01T06:44:55.660Z,11.92
2024-04-01T06:47:53.253Z,10.7
2024-04-01T06:50:50.758Z,11.780000000000001
2024-04-01T06:53:51.340Z,14.419999999999998
2024-04-01T06:56:49.988Z,15.319999999999999
2024-04-01T06:59:47.460Z,17.02
2024-04-01T07:02:45.021Z,13.120000000000001
2024-04-01T07:05:43.570Z,12.08
2024-04-01T07:08:41.105Z,9.599999999999998
2024-04-01T07:11:38.663Z,8.959999999999999
2024-04-01T07:14:36.235Z,14
2024-04-01T07:17:34.774Z,9.719999999999999
2024-04-01T07:20:37.641Z,16.02
2024-04-01T07:23:34.906Z,11.08
2024-04-01T07:26:32.438Z,13.6
2024-04-01T07:29:29.964Z,12.540000000000001
2024-04-01T07:32:27.552Z,15.059999999999999
2024-04-01T07:35:25.119Z,15.539999999999997
2024-04-01T07:38:22.662Z,19.04
2024-04-01T07:41:20.222Z,6.4
2024-04-01T07:44:17.795Z,16.6
2024-04-01T07:47:15.344Z,18.7
2024-04-01T07:50:12.927Z,16.02
2024-04-01T07:53:11.452Z,20.78
2024-04-01T07:56:08.998Z,15.059999999999999
2024-04-01T07:59:08.573Z,13.219999999999999
2024-04-01T08:02:07.090Z,19.66
2024-04-01T08:05:06.671Z,15.559999999999999
2024-04-01T08:08:05.196Z,17.46
2024-04-01T08:11:02.784Z,15.080000000000002
2024-04-01T08:14:00.382Z,18.8
2024-04-01T08:16:57.852Z,21
2024-04-01T08:19:55.452Z,13.919999999999998
2024-04-01T08:22:53.339Z,20.660000000000004
2024-04-01T08:25:51.537Z,19.84
2024-04-01T08:28:52.092Z,23.339999999999996
2024-04-01T08:31:49.675Z,19.56
2024-04-01T08:34:48.224Z,17
2024-04-01T08:37:45.760Z,19.18
2024-04-01T08:40:47.285Z,19.18
2024-04-01T08:43:47.829Z,26.2
2024-04-01T08:46:47.415Z,21.080000000000002
2024-04-01T08:49:51.948Z,22.52
2024-04-01T08:52:54.494Z,19.160000000000004
2024-04-01T08:55:52.052Z,21.6
2024-04-01T08:58:50.596Z,24.82
2024-04-01T09:01:48.163Z,20.639999999999997
2024-04-01T09:04:46.730Z,18.08
2024-04-01T09:07:48.263Z,27.820000000000004
2024-04-01T09:10:46.228Z,16.66
2024-04-01T09:13:47.346Z,28.139999999999997
2024-04-01T09:16:44.925Z,19.06
2024-04-01T09:19:44.475Z,30.9
2024-04-01T09:22:42.026Z,25.1
2024-04-01T09:25:39.661Z,28.26
2024-04-01T09:28:37.152Z,20.660000000000004
2024-04-01T09:31:34.706Z,17.419999999999998
2024-04-01T09:34:33.251Z,22.52
2024-04-01T09:37:30.811Z,29.660000000000004
2024-04-01T09:40:28.376Z,24.439999999999998
2024-04-01T09:43:42.932Z,28.7
2024-04-01T09:46:45.438Z,31.24
2024-04-01T09:49:45.334Z,29.18
2024-04-01T09:56:08.998Z,27.639999999999997
2024-04-01T09:59:36.495Z,32.78
2024-04-01T10:03:02.030Z,25.56
2024-04-01T10:06:26.503Z,29.540000000000003
2024-04-01T10:10:05.364Z,24.12
2024-04-01T10:13:34.411Z,24.96
2024-04-01T10:16:53.902Z,29.9
2024-04-01T10:20:05.443Z,22.66
2024-04-01T10:23:38.931Z,28.26
2024-04-01T10:27:03.429Z,21.68
2024-04-01T10:30:41.846Z,23.76
2024-04-01T10:34:12.294Z,24.9
2024-04-01T10:37:31.794Z,31.24
2024-04-01T10:40:46.363Z,24.42
2024-04-01T10:44:24.807Z,25.839999999999996
2024-04-01T10:47:53.361Z,21.96
2024-04-01T10:51:14.789Z,22.04
2024-04-01T10:54:29.305Z,25.400000000000002
2024-04-01T10:57:56.769Z,29.28
2024-04-01T11:01:32.213Z,27.22
2024-04-01T11:04:58.714Z,25.06
2024-04-01T11:08:13.225Z,18.880000000000003
2024-04-01T11:11:32.504Z,27.82
2024-04-01T11:14:34.280Z,13.34
2024-04-01T11:17:34.807Z,23.58
2024-04-01T11:20:47.334Z,25.220000000000002
2024-04-01T11:24:03.858Z,32.52
2024-04-01T11:27:23.360Z,32.040000000000006
2024-04-01T11:30:35.854Z,23.9
2024-04-01T11:33:51.401Z,32.4
2024-04-01T11:37:00.925Z,27.96
2024-04-01T11:43:11.993Z,28.7
2024-04-01T11:46:13.566Z,24.82
2024-04-01T11:49:11.108Z,30.98
2024-04-01T11:52:13.599Z,38.06
2024-04-01T11:55:13.201Z,28.82
2024-04-01T11:58:12.747Z,28.839999999999996
2024-04-01T12:01:11.304Z,25.880000000000003
2024-04-01T12:04:18.829Z,31.320000000000004
2024-04-01T12:07:17.359Z,24.779999999999998
2024-04-01T12:10:15.951Z,30.2
2024-04-01T12:13:15.505Z,22.78
2024-04-01T12:16:14.068Z,31.359999999999996
2024-04-01T12:19:20.967Z,31.640000000000004
2024-04-01T12:22:20.099Z,32.22
2024-04-01T12:25:17.697Z,36.260000000000005
2024-04-01T12:28:17.217Z,25.7
2024-04-01T12:31:20.570Z,19.72
2024-04-01T12:34:21.316Z,34.220000000000006
2024-04-01T12:37:23.862Z,31.779999999999994
2024-04-01T12:40:25.425Z,26.919999999999998
2024-04-01T12:43:22.963Z,27.679999999999996
2024-04-01T12:46:20.546Z,32.02
2024-04-01T12:49:22.067Z,22.84
2024-04-01T12:52:26.596Z,33.06
2024-04-01T12:55:34.138Z,30.28
2024-04-01T12:58:47.698Z,33.34
2024-04-01T13:01:59.212Z,31.72
2024-04-01T13:05:13.700Z,27.18
2024-04-01T13:08:34.235Z,25.76
2024-04-01T13:11:45.741Z,28.02
2024-04-01T13:14:59.255Z,29.6
2024-04-01T13:18:12.776Z,33.599999999999994
2024-04-01T13:21:22.273Z,27.6
2024-04-01T13:24:28.808Z,32.08
2024-04-01T13:27:37.354Z,29.5
2024-04-01T13:30:48.860Z,14.419999999999998
2024-04-01T13:34:02.738Z,32.480000000000004
2024-04-01T13:37:11.921Z,30.28
2024-04-01T13:40:24.479Z,22.439999999999998
2024-04-01T13:43:36.954Z,28.32
2024-04-01T13:46:48.497Z,29.96
2024-04-01T13:50:04.001Z,30.939999999999998
2024-04-01T13:53:24.490Z,29.1
2024-04-01T13:56:35.196Z,24.439999999999998
2024-04-01T13:59:45.576Z,27.1
2024-04-01T14:02:54.064Z,19.2
2024-04-01T14:06:14.588Z,28.76
2024-04-01T14:09:25.094Z,22.4
2024-04-01T14:12:32.624Z,25.080000000000002
2024-04-01T14:15:35.221Z,22.659999999999997
2024-04-01T14:18:49.650Z,24.14
2024-04-01T14:21:47.180Z,30.02
2024-04-01T14:24:57.752Z,19.22
2024-04-01T14:27:55.307Z,23.339999999999996
2024-04-01T14:30:52.861Z,20.56
2024-04-01T14:33:51.409Z,20.56
2024-04-01T14:36:48.971Z,17.979999999999997
2024-04-01T14:39:52.525Z,21.8
2024-04-01T14:42:50.085Z,24.24
2024-04-01T14:45:48.609Z,27.48
2024-04-01T14:48:47.195Z,28.24
2024-04-01T14:51:45.757Z,28.32
2024-04-01T14:54:44.299Z,22.300000000000004
2024-04-01T14:57:43.889Z,17.939999999999998
2024-04-01T15:00:43.395Z,19.939999999999998
2024-04-01T15:03:41.954Z,17.54
2024-04-01T15:06:39.496Z,23.859999999999996
2024-04-01T15:09:43.061Z,27.9
2024-04-01T15:12:40.596Z,23.48
2024-04-01T15:15:40.174Z,25.139999999999997
2024-04-01T15:18:37.708Z,23.94
2024-04-01T15:21:36.296Z,21.660000000000004
2024-04-01T15:24:34.815Z,24.82
2024-04-01T15:27:32.348Z,21.6
2024-04-01T15:30:31.927Z,26.679999999999996
2024-04-01T15:33:30.474Z,19.380000000000003
2024-04-01T15:36:28.039Z,21.14
2024-04-01T15:39:25.635Z,24.880000000000003
2024-04-01T15:42:23.179Z,21.04
2024-04-01T15:45:20.710Z,28.18
2024-04-01T15:48:20.286Z,22.979999999999997
2024-04-01T15:51:18.804Z,21.2
2024-04-01T15:54:17.378Z,22.14
2024-04-01T15:57:15.932Z,23.419999999999998
2024-04-01T16:00:19.500Z,18.06
2024-04-01T16:03:19.024Z,24.439999999999998
2024-04-01T16:06:17.587Z,19.86
2024-04-01T16:09:16.175Z,20.22
2024-04-01T16:12:16.659Z,20.560000000000002
2024-04-01T16:15:15.230Z,19.56
2024-04-01T16:18:14.777Z,24.880000000000003
2024-04-01T16:21:16.321Z,22.54
2024-04-01T16:24:15.900Z,15.920000000000002
2024-04-01T16:27:19.599Z,16.06
2024-04-01T16:30:21.982Z,17.619999999999997
2024-04-01T16:33:20.498Z,18.54
2024-04-01T16:36:34.866Z,24.56
2024-04-01T16:39:32.591Z,20.16
2024-04-01T16:42:33.487Z,23.599999999999998
2024-04-01T16:45:32.019Z,22.380000000000003
2024-04-01T16:48:30.244Z,21.479999999999997
2024-04-01T16:51:28.799Z,25.52
2024-04-01T16:54:29.348Z,21.4
2024-04-01T16:57:28.906Z,18.979999999999997
2024-04-01T17:00:26.497Z,19.48
2024-04-01T17:03:24.970Z,13.780000000000001
2024-04-01T17:06:24.559Z,18.919999999999998
2024-04-01T17:09:31.110Z,21.479999999999997
2024-04-01T17:12:29.708Z,19.259999999999998
2024-04-01T17:15:29.194Z,18.639999999999997
2024-04-01T17:18:27.768Z,25.580000000000002
2024-04-01T17:21:27.302Z,18.68
2024-04-01T17:24:24.863Z,20.44
2024-04-01T17:27:23.403Z,16.46
2024-04-01T17:30:22.994Z,23.72
2024-04-01T17:33:23.537Z,22.68
2024-04-01T17:36:21.085Z,21.5
2024-04-01T17:39:28.608Z,20.9
2024-04-01T17:42:27.214Z,20.979999999999997
2024-04-01T17:45:29.726Z,25.5
2024-04-01T17:48:31.307Z,20.78
2024-04-01T17:51:29.815Z,22.360000000000003
2024-04-01T17:54:28.356Z,24.740000000000002
2024-04-01T17:57:25.927Z,31.139999999999997
2024-04-01T18:00:28.511Z,45.08
2024-04-01T18:03:33.011Z,25.72
2024-04-01T18:06:42.687Z,21.68
2024-04-01T18:09:42.078Z,22.439999999999998
2024-04-01T18:12:40.659Z,25.220000000000006
2024-04-01T18:15:38.159Z,25.28
2024-04-01T18:18:37.706Z,22.34
2024-04-01T18:21:36.303Z,21.720000000000002
2024-04-01T18:24:34.833Z,21.52
2024-04-01T18:27:38.362Z,24.42
2024-04-01T18:30:39.379Z,17.78
2024-04-01T18:33:42.469Z,21.3
2024-04-01T18:36:51.493Z,21.119999999999997
2024-04-01T18:39:50.540Z,25.6
2024-04-01T18:42:54.105Z,16.04
2024-04-01T18:45:57.639Z,19.740000000000002
2024-04-01T18:49:04.165Z,17.86
2024-04-01T18:52:09.722Z,16.5
2024-04-01T18:55:11.236Z,15.539999999999997
2024-04-01T18:58:13.808Z,17.559999999999995
2024-04-01T19:01:20.616Z,15.52
2024-04-01T19:04:21.879Z,14.080000000000002
2024-04-01T19:07:26.420Z,17.339999999999996
2024-04-01T19:10:28.255Z,21.14
2024-04-01T19:13:27.536Z,14.959999999999999
2024-04-01T19:16:25.100Z,19.16
2024-04-01T19:19:28.474Z,18.84
2024-04-01T19:22:28.154Z,18.3
2024-04-01T19:25:25.726Z,20.599999999999998
2024-04-01T19:28:23.372Z,19.34
2024-04-01T19:31:28.852Z,18.6
2024-04-01T19:34:28.688Z,26.619999999999997
2024-04-01T19:37:32.919Z,20.2
2024-04-01T19:40:35.451Z,15.7
2024-04-01T19:43:34.034Z,22
2024-04-01T19:46:35.554Z,17.04
2024-04-01T19:49:33.121Z,18.52
2024-04-01T19:52:34.956Z,22.16
2024-04-01T19:55:37.216Z,20.3
2024-04-01T19:58:38.749Z,11.219999999999999
2024-04-01T20:05:09.796Z,20.860000000000003
2024-04-01T20:08:15.361Z,12.260000000000002
2024-04-01T20:11:17.848Z,19.419999999999998
2024-04-01T20:14:17.401Z,11.139999999999999
2024-04-01T20:17:25.462Z,11.58
2024-04-01T20:20:32.463Z,16.16
2024-04-01T20:23:32.031Z,18.240000000000002
2024-04-01T20:26:31.766Z,13.839999999999998
2024-04-01T20:29:36.091Z,12.28
2024-04-01T20:32:40.939Z,16.82
2024-04-01T20:35:43.550Z,8.040000000000001
2024-04-01T20:38:41.734Z,14.3
2024-04-01T20:41:50.625Z,17.479999999999997
2024-04-01T20:44:48.875Z,19
2024-04-01T20:47:48.383Z,10.239999999999998
2024-04-01T20:54:21.895Z,12.559999999999999
2024-04-01T20:57:18.978Z,13.440000000000001
2024-04-01T21:00:29.498Z,13.600000000000003
2024-04-01T21:03:29.016Z,15.540000000000001
2024-04-01T21:06:31.588Z,16.359999999999996
2024-04-01T21:09:34.109Z,16.939999999999998
2024-04-01T21:12:31.667Z,14.839999999999998
2024-04-01T21:15:29.216Z,16.939999999999998
2024-04-01T21:18:27.838Z,19.160000000000004
2024-04-01T21:21:25.375Z,15.98
2024-04-01T21:24:23.892Z,17.8
2024-04-01T21:27:25.465Z,15.9
2024-04-01T21:30:23.992Z,12.9
2024-04-01T21:33:21.575Z,15.319999999999999
2024-04-01T21:36:19.107Z,21.419999999999998
2024-04-01T21:39:16.686Z,17.54
2024-04-01T21:42:14.213Z,17.2
2024-04-01T21:45:12.798Z,15.34
2024-04-01T21:48:12.336Z,13.379999999999999
2024-04-01T21:51:09.919Z,15.160000000000002
2024-04-01T21:54:07.449Z,19.28
2024-04-01T21:57:04.991Z,10.780000000000001
2024-04-01T22:00:08.674Z,15.819999999999999
2024-04-01T22:03:08.082Z,19.78
2024-04-01T22:06:10.132Z,13.6
2024-04-01T22:09:09.191Z,11.82
2024-04-01T22:12:07.763Z,23.220000000000002
2024-04-01T22:15:05.286Z,16.46
2024-04-01T22:18:02.875Z,19.2
2024-04-01T22:21:01.410Z,13.3
2024-04-01T22:23:59.976Z,11.08
2024-04-01T22:26:59.531Z,20.380000000000003
2024-04-01T22:30:00.139Z,18.32
2024-04-01T22:32:57.697Z,21.22
2024-04-01T22:35:56.374Z,16.64
2024-04-01T22:38:53.765Z,17.7
2024-04-01T22:41:51.305Z,16.64
2024-04-01T22:44:50.871Z,14.040000000000001
2024-04-01T22:47:49.420Z,19.16
2024-04-01T22:50:47.955Z,11.4
2024-04-01T22:53:45.526Z,20.66
2024-04-01T22:56:43.079Z,17.96
2024-04-01T22:59:40.611Z,11.219999999999999
2024-04-01T23:02:38.194Z,16.360000000000003
2024-04-01T23:05:36.727Z,24.059999999999995
2024-04-01T23:08:34.315Z,14.319999999999999
2024-04-01T23:11:32.880Z,10.18
2024-04-01T23:14:33.677Z,11.9
2024-04-01T23:17:32.951Z,20.5
2024-04-01T23:20:30.545Z,16.46
2024-04-01T23:23:30.085Z,17.560000000000002
2024-04-01T23:26:31.963Z,11.14
2024-04-01T23:29:29.163Z,29.98
2024-04-01T23:32:26.737Z,33.1
2024-04-01T23:35:24.290Z,30.939999999999998
2024-04-01T23:38:21.828Z,24.78
2024-04-01T23:41:19.737Z,16.359999999999996
2024-04-01T23:44:17.965Z,15.179999999999998
2024-04-01T23:47:15.484Z,24.04
2024-04-01T23:50:13.065Z,28.560000000000002
2024-04-01T23:53:12.738Z,26.3
2024-04-01T23:56:12.163Z,14.26
2024-04-01T23:59:10.949Z,13.680000000000001
